createdAt,value
2022-11-29T00:00:34.866Z,14.57
2022-11-29T00:04:16.716Z,13.67
2022-11-29T00:07:58.855Z,14.10
2022-11-29T00:12:00.814Z,10.68
2022-11-29T00:15:42.997Z,10.20
2022-11-29T00:19:26.485Z,12.32
2022-11-29T00:23:10.357Z,9.10
2022-11-29T00:26:53.641Z,8.77
2022-11-29T00:30:35.781Z,9.67
2022-11-29T00:34:17.973Z,8.48
2022-11-29T00:37:59.801Z,9.50
2022-11-29T00:41:42.043Z,9.00
2022-11-29T00:45:23.948Z,11.40
2022-11-29T00:49:06.232Z,11.02
2022-11-29T00:52:48.145Z,14.63
2022-11-29T00:56:30.480Z,10.55
2022-11-29T01:00:13.007Z,11.73
2022-11-29T01:03:54.933Z,8.73
2022-11-29T01:07:36.840Z,12.37
2022-11-29T01:11:24.441Z,10.45
2022-11-29T01:15:07.699Z,12.45
2022-11-29T01:18:49.819Z,9.23
2022-11-29T01:22:31.737Z,9.80
2022-11-29T01:26:16.507Z,11.65
2022-11-29T01:29:58.452Z,11.13
2022-11-29T01:33:40.948Z,12.55
2022-11-29T01:37:22.808Z,10.02
2022-11-29T01:41:08.105Z,15.15
2022-11-29T01:44:49.941Z,10.07
2022-11-29T01:48:33.464Z,10.65
2022-11-29T01:52:22.542Z,8.68
2022-11-29T01:56:06.752Z,8.90
2022-11-29T01:59:51.941Z,10.88
2022-11-29T02:03:34.003Z,10.95
2022-11-29T02:07:16.309Z,11.27
2022-11-29T02:11:27.253Z,10.15
2022-11-29T02:15:40.722Z,9.30
2022-11-29T02:19:39.293Z,8.57
2022-11-29T02:23:41.367Z,8.87
2022-11-29T02:27:41.431Z,8.52
2022-11-29T02:31:41.393Z,9.95
2022-11-29T02:35:49.237Z,13.50
2022-11-29T02:40:02.041Z,10.10
2022-11-29T02:43:50.081Z,13.43
2022-11-29T02:47:57.855Z,10.43
2022-11-29T02:51:48.190Z,9.20
2022-11-29T02:55:51.836Z,13.15
2022-11-29T02:59:54.206Z,11.57
2022-11-29T03:03:58.455Z,14.20
2022-11-29T03:08:06.091Z,10.55
2022-11-29T03:11:55.858Z,9.73
2022-11-29T03:16:12.178Z,12.07
2022-11-29T03:20:28.344Z,11.05
2022-11-29T03:24:19.108Z,10.65
2022-11-29T03:28:13.115Z,9.77
2022-11-29T03:32:22.805Z,10.35
2022-11-29T03:36:24.626Z,7.93
2022-11-29T03:40:13.085Z,8.65
2022-11-29T03:44:15.470Z,8.73
2022-11-29T03:48:16.466Z,10.18
2022-11-29T03:52:06.429Z,9.73
2022-11-29T03:55:57.101Z,10.47
2022-11-29T04:00:04.291Z,11.02
2022-11-29T04:04:17.690Z,12.63
2022-11-29T04:08:17.605Z,9.03
2022-11-29T04:12:41.666Z,9.88
2022-11-29T04:16:29.431Z,9.43
2022-11-29T04:20:20.650Z,10.52
2022-11-29T04:24:26.684Z,10.90
2022-11-29T04:28:11.905Z,9.93
2022-11-29T04:31:53.804Z,10.18
2022-11-29T04:35:41.958Z,9.43
2022-11-29T04:39:39.892Z,11.40
2022-11-29T04:44:00.084Z,10.02
2022-11-29T04:47:52.673Z,9.53
2022-11-29T04:52:17.469Z,8.32
2022-11-29T04:56:06.459Z,11.35
2022-11-29T04:59:56.292Z,11.48
2022-11-29T05:03:45.679Z,12.20
2022-11-29T05:07:31.618Z,10.90
2022-11-29T05:11:37.960Z,11.35
2022-11-29T05:15:44.447Z,10.57
2022-11-29T05:19:57.575Z,11.65
2022-11-29T05:23:51.237Z,11.60
2022-11-29T05:27:47.981Z,11.57
2022-11-29T05:31:29.972Z,10.25
2022-11-29T05:35:49.474Z,12.20
2022-11-29T05:39:49.366Z,11.20
2022-11-29T05:44:01.734Z,10.43
2022-11-29T05:47:57.726Z,12.48
2022-11-29T05:51:47.255Z,12.15
2022-11-29T05:55:40.593Z,12.20
2022-11-29T05:59:27.601Z,11.77
2022-11-29T06:03:38.559Z,9.95
2022-11-29T06:07:45.428Z,11.53
2022-11-29T06:11:45.273Z,10.93
2022-11-29T06:16:09.267Z,15.95
2022-11-29T06:20:26.456Z,11.02
2022-11-29T06:24:25.535Z,12.50
2022-11-29T06:28:28.820Z,13.07
2022-11-29T06:32:10.635Z,10.88
2022-11-29T06:36:12.314Z,14.50
2022-11-29T06:39:55.062Z,13.75
2022-11-29T06:43:37.201Z,14.98
2022-11-29T06:47:30.630Z,14.20
2022-11-29T06:51:53.055Z,14.52
2022-11-29T06:56:09.190Z,12.93
2022-11-29T07:00:02.585Z,14.43
2022-11-29T07:03:47.135Z,12.17
2022-11-29T07:07:29.366Z,19.40
2022-11-29T07:11:14.407Z,15.95
2022-11-29T07:14:56.853Z,26.67
2022-11-29T07:19:13.372Z,28.23
2022-11-29T07:23:14.272Z,22.27
2022-11-29T07:27:05.509Z,20.10
2022-11-29T07:31:09.261Z,25.55
2022-11-29T07:35:08.964Z,24.25
2022-11-29T07:38:59.901Z,28.52
2022-11-29T07:43:01.194Z,36.93
2022-11-29T07:46:43.057Z,40.47
2022-11-29T07:50:26.720Z,29.92
2022-11-29T07:54:11.130Z,33.07
2022-11-29T07:57:53.656Z,37.40
2022-11-29T08:01:35.640Z,27.30
2022-11-29T08:05:18.045Z,41.40
2022-11-29T08:09:00.663Z,97.97
2022-11-29T08:12:48.863Z,37.83
2022-11-29T08:16:31.586Z,42.17
2022-11-29T08:20:15.344Z,30.67
2022-11-29T08:23:57.394Z,40.83
2022-11-29T08:27:39.743Z,39.97
2022-11-29T08:35:22.278Z,36.00
2022-11-29T08:43:13.758Z,39.23
2022-11-29T08:47:21.503Z,35.83
2022-11-29T08:51:05.195Z,39.97
2022-11-29T08:58:47.577Z,33.77
2022-11-29T09:02:29.739Z,32.83
2022-11-29T09:06:30.978Z,33.40
2022-11-29T09:10:13.461Z,44.70
2022-11-29T09:18:06.442Z,17.85
2022-11-29T09:21:48.378Z,23.97
2022-11-29T09:25:39.378Z,25.20
2022-11-29T09:29:21.403Z,18.83
2022-11-29T09:33:04.951Z,21.15
2022-11-29T09:36:55.122Z,51.15
2022-11-29T09:45:24.583Z,28.17
2022-11-29T09:49:16.673Z,25.30
2022-11-29T09:53:04.411Z,38.50
2022-11-29T10:01:00.713Z,39.35
2022-11-29T10:05:16.873Z,71.17
2022-11-29T10:13:25.224Z,35.75
2022-11-29T10:17:43.447Z,35.50
2022-11-29T10:22:13.347Z,58.67
2022-11-29T10:26:44.151Z,56.30
2022-11-29T10:31:14.292Z,61.67
2022-11-29T10:35:01.683Z,41.90
2022-11-29T10:38:59.398Z,68.00
2022-11-29T10:42:54.127Z,45.60
2022-11-29T10:51:35.074Z,28.27
2022-11-29T11:00:33.230Z,55.55
2022-11-29T11:04:48.067Z,44.63
2022-11-29T11:08:31.757Z,52.75
2022-11-29T11:12:39.511Z,24.25
2022-11-29T11:20:44.399Z,52.65
2022-11-29T11:25:03.724Z,44.17
2022-11-29T11:29:04.596Z,49.23
2022-11-29T11:33:35.019Z,53.10
2022-11-29T11:37:30.224Z,55.33
2022-11-29T11:42:12.099Z,39.35
2022-11-29T11:50:07.736Z,28.08
2022-11-29T11:54:21.099Z,57.88
2022-11-29T12:14:58.474Z,25.70
2022-11-29T12:19:04.970Z,21.58
2022-11-29T12:36:01.230Z,16.13
2022-11-29T12:40:01.168Z,13.67
2022-11-29T12:44:14.966Z,19.65
2022-11-29T12:52:57.731Z,19.03
2022-11-29T12:57:40.459Z,19.98
2022-11-29T13:01:59.215Z,15.63
2022-11-29T13:06:25.732Z,13.60
2022-11-29T13:10:56.756Z,17.03
2022-11-29T13:32:58.064Z,15.45
2022-11-29T13:37:28.014Z,15.15
2022-11-29T13:41:34.249Z,16.73
2022-11-29T13:54:06.581Z,16.60
2022-11-29T14:23:41.175Z,13.57
2022-11-29T14:27:34.094Z,21.23
2022-11-29T14:36:02.452Z,19.83
2022-11-29T14:40:16.001Z,16.52
2022-11-29T14:44:26.748Z,22.77
2022-11-29T14:48:28.271Z,18.33
2022-11-29T14:56:53.166Z,15.38
2022-11-29T15:01:33.915Z,16.80
2022-11-29T15:05:50.484Z,15.93
2022-11-29T15:09:34.386Z,13.27
2022-11-29T15:18:11.988Z,11.70
2022-11-29T15:22:39.349Z,10.73
2022-11-29T15:26:21.778Z,13.38
2022-11-29T15:30:35.688Z,16.50
2022-11-29T15:35:05.594Z,19.23
2022-11-29T15:43:15.031Z,27.33
2022-11-29T15:52:00.301Z,17.65
2022-11-29T15:55:43.924Z,15.18
2022-11-29T15:59:55.315Z,14.88
2022-11-29T16:03:45.614Z,14.30
2022-11-29T16:07:32.637Z,16.83
2022-11-29T16:11:18.088Z,17.08
2022-11-29T16:15:01.264Z,15.20
2022-11-29T16:18:45.875Z,16.30
2022-11-29T16:22:27.826Z,18.52
2022-11-29T16:26:23.008Z,17.00
2022-11-29T16:30:05.835Z,19.33
2022-11-29T16:33:50.060Z,21.38
2022-11-29T16:37:38.610Z,16.45
2022-11-29T16:41:32.502Z,17.70
2022-11-29T16:45:33.436Z,16.17
2022-11-29T16:49:34.941Z,17.33
2022-11-29T16:53:37.678Z,15.17
2022-11-29T16:57:19.870Z,13.75
2022-11-29T17:01:17.344Z,13.35
2022-11-29T17:04:59.477Z,13.90
2022-11-29T17:08:41.465Z,12.40
2022-11-29T17:12:23.505Z,14.32
2022-11-29T17:16:11.315Z,14.80
2022-11-29T17:19:53.383Z,12.07
2022-11-29T17:23:35.289Z,15.27
2022-11-29T17:27:17.281Z,18.30
2022-11-29T17:30:59.299Z,14.13
2022-11-29T17:34:41.290Z,18.02
2022-11-29T17:38:23.218Z,13.00
2022-11-29T17:42:05.252Z,13.77
2022-11-29T17:45:47.316Z,13.20
2022-11-29T17:49:29.287Z,13.23
2022-11-29T17:53:11.227Z,12.35
2022-11-29T17:56:53.283Z,14.47
2022-11-29T18:00:35.282Z,12.32
2022-11-29T18:04:17.252Z,13.60
2022-11-29T18:07:59.750Z,11.13
2022-11-29T18:11:48.515Z,12.95
2022-11-29T18:15:33.268Z,12.13
2022-11-29T18:19:18.176Z,13.10
2022-11-29T18:23:04.995Z,13.95
2022-11-29T18:26:49.711Z,13.85
2022-11-29T18:30:31.686Z,19.42
2022-11-29T18:34:15.060Z,13.37
2022-11-29T18:38:14.897Z,17.40
2022-11-29T18:41:57.964Z,23.55
2022-11-29T18:45:39.946Z,19.00
2022-11-29T18:49:22.282Z,17.25
2022-11-29T18:53:04.592Z,19.58
2022-11-29T18:56:46.925Z,15.23
2022-11-29T19:00:28.960Z,17.08
2022-11-29T19:04:16.610Z,17.08
2022-11-29T19:07:58.857Z,16.90
2022-11-29T19:11:40.918Z,18.77
2022-11-29T19:15:22.810Z,21.23
2022-11-29T19:19:04.992Z,18.35
2022-11-29T19:22:47.907Z,15.03
2022-11-29T19:26:31.106Z,19.38
2022-11-29T19:30:15.623Z,21.10
2022-11-29T19:33:58.269Z,17.87
2022-11-29T19:37:42.049Z,17.55
2022-11-29T19:41:30.571Z,17.85
2022-11-29T19:45:17.543Z,17.58
2022-11-29T19:49:01.070Z,20.63
2022-11-29T19:52:43.061Z,15.43
2022-11-29T19:56:25.747Z,20.48
2022-11-29T20:00:08.482Z,19.37
2022-11-29T20:03:51.209Z,18.67
2022-11-29T20:07:33.152Z,21.85
2022-11-29T20:11:18.583Z,16.70
2022-11-29T20:15:01.169Z,21.08
2022-11-29T20:18:50.450Z,21.98
2022-11-29T20:22:32.975Z,21.52
2022-11-29T20:26:20.494Z,21.20
2022-11-29T20:30:02.448Z,22.42
2022-11-29T20:33:45.915Z,21.67
2022-11-29T20:37:50.797Z,22.67
2022-11-29T20:41:53.006Z,19.63
2022-11-29T20:45:36.338Z,18.38
2022-11-29T20:49:18.611Z,21.53
2022-11-29T20:53:15.296Z,25.83
2022-11-29T20:56:57.163Z,21.67
2022-11-29T21:00:39.052Z,22.63
2022-11-29T21:04:23.533Z,23.43
2022-11-29T21:08:05.799Z,21.70
2022-11-29T21:11:47.982Z,22.08
2022-11-29T21:15:30.696Z,24.53
2022-11-29T21:19:18.819Z,24.42
2022-11-29T21:23:21.970Z,20.42
2022-11-29T21:27:04.557Z,22.50
2022-11-29T21:30:46.646Z,20.67
2022-11-29T21:34:28.600Z,22.00
2022-11-29T21:38:17.843Z,24.35
2022-11-29T21:41:59.696Z,22.80
2022-11-29T21:45:41.764Z,27.13
2022-11-29T21:49:23.678Z,23.55
2022-11-29T21:53:05.962Z,25.87
2022-11-29T21:56:47.818Z,24.75
2022-11-29T22:00:33.139Z,23.15
2022-11-29T22:04:19.376Z,21.73
2022-11-29T22:08:01.595Z,25.35
2022-11-29T22:11:43.564Z,24.10
2022-11-29T22:15:25.533Z,24.27
2022-11-29T22:19:07.428Z,27.27
2022-11-29T22:22:49.484Z,25.67
2022-11-29T22:26:32.105Z,26.83
2022-11-29T22:30:14.094Z,27.73
2022-11-29T22:33:57.194Z,27.25
2022-11-29T22:37:39.232Z,24.70
2022-11-29T22:41:21.134Z,24.13
2022-11-29T22:45:04.402Z,25.77
2022-11-29T22:48:49.010Z,25.70
2022-11-29T22:52:30.975Z,27.02
2022-11-29T22:56:13.138Z,23.70
2022-11-29T22:59:55.029Z,29.73
2022-11-29T23:03:39.542Z,31.77
2022-11-29T23:07:21.582Z,28.30
2022-11-29T23:11:05.222Z,30.00
2022-11-29T23:14:51.551Z,28.95
2022-11-29T23:18:37.486Z,25.73
2022-11-29T23:22:19.380Z,30.58
2022-11-29T23:26:01.880Z,30.00
2022-11-29T23:29:44.075Z,30.77
2022-11-29T23:33:26.797Z,33.70
2022-11-29T23:37:09.083Z,31.67
2022-11-29T23:40:51.047Z,31.92
2022-11-29T23:44:32.995Z,29.83
2022-11-29T23:48:15.273Z,33.92
2022-11-29T23:51:57.260Z,37.75
2022-11-29T23:55:39.254Z,34.37
2022-11-29T23:59:21.177Z,34.75
